createdAt,value
2022-08-21T00:01:39.056Z,23.89
2022-08-21T00:04:07.522Z,23.81
2022-08-21T00:06:34.826Z,23.65
2022-08-21T00:09:06.272Z,23.71
2022-08-21T00:11:36.097Z,23.61
2022-08-21T00:14:04.690Z,23.38
2022-08-21T00:16:31.877Z,23.74
2022-08-21T00:18:59.307Z,23.67
2022-08-21T00:21:26.469Z,23.76
2022-08-21T00:23:53.775Z,23.68
2022-08-21T00:26:21.219Z,23.77
2022-08-21T00:28:49.935Z,23.74
2022-08-21T00:31:17.751Z,23.85
2022-08-21T00:33:45.375Z,23.96
2022-08-21T00:36:13.094Z,23.93
2022-08-21T00:38:40.381Z,23.57
2022-08-21T00:41:32.248Z,23.75
2022-08-21T00:43:56.058Z,23.75
2022-08-21T00:46:28.214Z,23.79
2022-08-21T00:48:58.690Z,23.69
2022-08-21T00:51:28.744Z,23.57
2022-08-21T00:53:57.563Z,23.43
2022-08-21T00:56:26.547Z,23.48
2022-08-21T00:58:54.996Z,23.75
2022-08-21T01:01:22.455Z,23.54
2022-08-21T01:03:50.418Z,23.34
2022-08-21T01:06:17.718Z,23.44
2022-08-21T01:08:46.981Z,23.40
2022-08-21T01:11:15.556Z,23.61
2022-08-21T01:13:46.844Z,23.56
2022-08-21T01:16:15.165Z,23.58
2022-08-21T01:18:42.665Z,23.78
2022-08-21T01:21:11.593Z,23.72
2022-08-21T01:23:40.996Z,23.48
2022-08-21T01:26:08.743Z,23.40
2022-08-21T01:28:38.347Z,23.54
2022-08-21T01:31:06.463Z,23.44
2022-08-21T01:33:36.082Z,23.50
2022-08-21T01:36:03.416Z,23.46
2022-08-21T01:38:30.612Z,23.40
2022-08-21T01:40:58.977Z,23.54
2022-08-21T01:43:32.432Z,23.51
2022-08-21T01:46:07.341Z,23.26
2022-08-21T01:48:34.741Z,23.11
2022-08-21T01:51:01.935Z,22.92
2022-08-21T01:53:33.609Z,23.31
2022-08-21T01:56:01.510Z,23.21
2022-08-21T01:58:28.738Z,22.40
2022-08-21T02:00:56.258Z,22.83
2022-08-21T02:03:35.251Z,23.00
2022-08-21T02:06:06.248Z,23.07
2022-08-21T02:08:33.684Z,22.83
2022-08-21T02:11:01.220Z,23.08
2022-08-21T02:13:28.400Z,23.03
2022-08-21T02:15:55.828Z,23.28
2022-08-21T02:18:23.349Z,23.13
2022-08-21T02:20:56.126Z,23.16
2022-08-21T02:23:27.322Z,23.00
2022-08-21T02:25:55.730Z,23.01
2022-08-21T02:28:23.006Z,22.96
2022-08-21T02:30:50.849Z,23.19
2022-08-21T02:33:19.482Z,23.23
2022-08-21T02:35:48.722Z,23.27
2022-08-21T02:38:18.837Z,23.16
2022-08-21T02:40:48.040Z,22.98
2022-08-21T02:43:16.438Z,22.98
2022-08-21T02:45:43.795Z,22.97
2022-08-21T02:48:12.326Z,22.95
2022-08-21T02:50:44.718Z,23.10
2022-08-21T02:53:14.260Z,23.12
2022-08-21T02:55:41.703Z,22.99
2022-08-21T02:58:09.026Z,22.88
2022-08-21T03:00:36.762Z,22.75
2022-08-21T03:03:04.798Z,22.62
2022-08-21T03:05:32.658Z,22.67
2022-08-21T03:08:00.592Z,22.72
2022-08-21T03:10:29.191Z,22.71
2022-08-21T03:12:56.464Z,22.50
2022-08-21T03:15:24.806Z,22.57
2022-08-21T03:17:52.354Z,22.60
2022-08-21T03:20:20.392Z,22.81
2022-08-21T03:22:48.593Z,22.84
2022-08-21T03:25:23.428Z,22.79
2022-08-21T03:28:08.091Z,23.02
2022-08-21T03:30:35.543Z,23.05
2022-08-21T03:33:02.736Z,22.73
2022-08-21T03:35:30.012Z,22.78
2022-08-21T03:37:57.452Z,23.05
2022-08-21T03:40:25.398Z,23.10
2022-08-21T03:42:52.614Z,23.07
2022-08-21T03:45:20.484Z,23.00
2022-08-21T03:47:53.989Z,23.31
2022-08-21T03:50:21.491Z,22.84
2022-08-21T03:52:48.963Z,23.08
2022-08-21T03:55:16.276Z,22.84
2022-08-21T03:57:43.776Z,22.90
2022-08-21T04:00:12.874Z,22.85
2022-08-21T04:02:40.570Z,22.99
2022-08-21T04:05:08.056Z,23.06
2022-08-21T04:07:35.252Z,23.20
2022-08-21T04:10:03.641Z,22.91
2022-08-21T04:12:31.322Z,22.99
2022-08-21T04:14:58.588Z,22.93
2022-08-21T04:17:26.329Z,22.78
2022-08-21T04:19:54.071Z,22.85
2022-08-21T04:22:21.315Z,23.19
2022-08-21T04:24:48.860Z,23.05
2022-08-21T04:27:16.030Z,22.88
2022-08-21T04:29:43.189Z,22.95
2022-08-21T04:32:10.668Z,23.02
2022-08-21T04:34:37.972Z,22.87
2022-08-21T04:37:05.220Z,23.12
2022-08-21T04:39:33.464Z,23.06
2022-08-21T04:42:00.655Z,23.08
2022-08-21T04:44:27.832Z,22.97
2022-08-21T04:46:55.326Z,23.18
2022-08-21T04:49:22.719Z,23.06
2022-08-21T04:51:49.894Z,23.04
2022-08-21T04:54:21.881Z,23.05
2022-08-21T04:56:49.087Z,23.11
2022-08-21T04:59:17.477Z,23.04
2022-08-21T05:01:44.700Z,23.20
2022-08-21T05:04:13.543Z,23.25
2022-08-21T05:06:42.026Z,23.18
2022-08-21T05:09:10.279Z,23.19
2022-08-21T05:11:38.107Z,23.09
2022-08-21T05:14:05.537Z,22.98
2022-08-21T05:16:37.587Z,23.26
2022-08-21T05:19:06.473Z,23.40
2022-08-21T05:21:39.151Z,23.22
2022-08-21T05:24:06.682Z,23.39
2022-08-21T05:26:33.839Z,23.00
2022-08-21T05:29:13.586Z,23.18
2022-08-21T05:31:40.798Z,23.23
2022-08-21T05:34:07.954Z,23.07
2022-08-21T05:36:35.463Z,22.98
2022-08-21T05:39:02.964Z,23.19
2022-08-21T05:41:30.143Z,23.32
2022-08-21T05:43:57.718Z,23.41
2022-08-21T05:46:24.919Z,23.56
2022-08-21T05:48:52.155Z,23.45
2022-08-21T05:51:19.874Z,23.31
2022-08-21T05:53:47.145Z,23.10
2022-08-21T05:56:14.453Z,23.33
2022-08-21T05:58:41.924Z,23.44
2022-08-21T06:01:10.036Z,23.38
2022-08-21T06:03:39.518Z,23.33
2022-08-21T06:06:07.092Z,23.42
2022-08-21T06:08:35.084Z,23.49
2022-08-21T06:11:03.013Z,23.45
2022-08-21T06:13:30.175Z,23.61
2022-08-21T06:16:08.416Z,23.61
2022-08-21T06:18:36.864Z,23.65
2022-08-21T06:21:05.402Z,23.49
2022-08-21T06:23:33.182Z,23.62
2022-08-21T06:26:05.635Z,23.51
2022-08-21T06:28:32.921Z,23.54
2022-08-21T06:31:00.463Z,23.69
2022-08-21T06:33:32.368Z,23.71
2022-08-21T06:36:01.079Z,23.54
2022-08-21T06:38:28.598Z,23.47
2022-08-21T06:40:56.139Z,23.60
2022-08-21T06:43:39.182Z,23.46
2022-08-21T06:46:08.684Z,23.84
2022-08-21T06:48:36.122Z,23.94
2022-08-21T06:51:03.817Z,24.08
2022-08-21T06:53:31.284Z,23.87
2022-08-21T06:55:58.541Z,23.92
2022-08-21T06:58:25.756Z,23.86
2022-08-21T07:00:57.529Z,24.34
2022-08-21T07:03:31.889Z,24.06
2022-08-21T07:05:59.403Z,24.39
2022-08-21T07:08:26.979Z,24.27
2022-08-21T07:10:54.843Z,24.45
2022-08-21T07:13:22.691Z,24.41
2022-08-21T07:15:49.863Z,24.56
2022-08-21T07:18:17.397Z,24.62
2022-08-21T07:20:44.934Z,24.44
2022-08-21T07:23:13.471Z,24.69
2022-08-21T07:25:40.674Z,24.98
2022-08-21T07:28:08.136Z,25.06
2022-08-21T07:30:35.353Z,24.90
2022-08-21T07:33:02.537Z,25.05
2022-08-21T07:35:30.176Z,24.91
2022-08-21T07:37:57.471Z,25.37
2022-08-21T07:40:31.104Z,25.41
2022-08-21T07:43:00.610Z,25.10
2022-08-21T07:45:27.975Z,25.19
2022-08-21T07:47:57.462Z,25.44
2022-08-21T07:50:25.352Z,25.40
2022-08-21T07:52:52.948Z,25.27
2022-08-21T07:55:20.658Z,25.42
2022-08-21T07:57:48.426Z,25.52
2022-08-21T08:00:17.023Z,25.38
2022-08-21T08:02:46.168Z,25.52
2022-08-21T08:05:13.594Z,25.41
2022-08-21T08:07:40.834Z,25.67
2022-08-21T08:10:11.507Z,25.60
2022-08-21T08:12:39.760Z,25.76
2022-08-21T08:15:08.251Z,25.88
2022-08-21T08:17:35.761Z,25.94
2022-08-21T08:20:03.520Z,26.10
2022-08-21T08:22:30.730Z,26.23
2022-08-21T08:24:58.188Z,26.41
2022-08-21T08:27:25.387Z,25.97
2022-08-21T08:29:52.571Z,26.30
2022-08-21T08:32:20.549Z,26.06
2022-08-21T08:34:49.678Z,26.17
2022-08-21T08:37:19.887Z,26.32
2022-08-21T08:39:50.562Z,26.57
2022-08-21T08:42:33.450Z,26.09
2022-08-21T08:45:03.694Z,26.43
2022-08-21T08:47:31.394Z,26.80
2022-08-21T08:50:07.949Z,26.95
2022-08-21T08:52:41.928Z,26.98
2022-08-21T08:55:09.738Z,26.99
2022-08-21T08:57:37.478Z,27.19
2022-08-21T09:00:11.170Z,27.01
2022-08-21T09:02:42.623Z,26.84
2022-08-21T09:05:13.238Z,26.78
2022-08-21T09:07:41.578Z,26.74
2022-08-21T09:10:14.741Z,27.06
2022-08-21T09:13:00.895Z,26.77
2022-08-21T09:15:48.460Z,26.48
2022-08-21T09:18:16.008Z,26.92
2022-08-21T09:21:01.567Z,27.10
2022-08-21T09:23:29.713Z,26.94
2022-08-21T09:26:05.920Z,27.23
2022-08-21T09:28:36.458Z,27.12
2022-08-21T09:31:04.629Z,27.25
2022-08-21T09:33:31.886Z,27.47
2022-08-21T09:35:59.335Z,27.46
2022-08-21T09:38:32.750Z,27.36
2022-08-21T09:41:02.003Z,27.73
2022-08-21T09:43:30.255Z,27.74
2022-08-21T09:46:06.800Z,27.83
2022-08-21T09:48:45.229Z,27.92
2022-08-21T09:51:22.937Z,27.67
2022-08-21T09:54:08.819Z,27.75
2022-08-21T09:56:56.056Z,27.27
2022-08-21T09:59:29.277Z,27.76
2022-08-21T10:01:58.455Z,27.57
2022-08-21T10:04:29.328Z,27.80
2022-08-21T10:07:06.485Z,27.97
2022-08-21T10:09:34.014Z,27.99
2022-08-21T10:12:21.471Z,28.05
2022-08-21T10:15:08.732Z,28.10
2022-08-21T10:17:44.427Z,28.07
2022-08-21T10:20:13.558Z,28.21
2022-08-21T10:22:40.720Z,28.70
2022-08-21T10:25:26.735Z,28.81
2022-08-21T10:28:21.368Z,29.01
2022-08-21T10:30:51.307Z,28.93
2022-08-21T10:33:25.419Z,28.80
2022-08-21T10:35:52.551Z,28.59
2022-08-21T10:38:46.233Z,28.51
2022-08-21T10:41:19.702Z,28.63
2022-08-21T10:43:51.906Z,28.65
2022-08-21T10:46:33.369Z,28.70
2022-08-21T10:49:06.950Z,28.95
2022-08-21T10:51:36.974Z,29.32
2022-08-21T10:54:23.664Z,29.43
2022-08-21T10:56:52.493Z,29.47
2022-08-21T10:59:27.714Z,29.51
2022-08-21T11:02:00.814Z,29.54
2022-08-21T11:04:49.598Z,29.75
2022-08-21T11:07:33.646Z,29.06
2022-08-21T11:10:12.103Z,29.06
2022-08-21T11:12:42.562Z,29.29
2022-08-21T11:15:29.086Z,29.56
2022-08-21T11:18:09.406Z,29.76
2022-08-21T11:20:55.468Z,29.61
2022-08-21T11:23:24.104Z,29.28
2022-08-21T11:25:56.395Z,28.74
2022-08-21T11:28:31.890Z,29.17
2022-08-21T11:31:03.812Z,29.16
2022-08-21T11:33:35.034Z,28.90
2022-08-21T11:36:09.982Z,28.72
2022-08-21T11:38:42.474Z,28.54
2022-08-21T11:41:12.977Z,28.51
2022-08-21T11:43:42.299Z,28.99
2022-08-21T11:46:18.811Z,28.94
2022-08-21T11:49:01.281Z,29.04
2022-08-21T11:51:32.405Z,28.82
2022-08-21T11:54:13.977Z,28.88
2022-08-21T11:56:43.393Z,28.87
2022-08-21T11:59:13.422Z,28.53
2022-08-21T12:01:43.237Z,28.66
2022-08-21T12:04:29.885Z,28.36
2022-08-21T12:06:57.657Z,28.35
2022-08-21T12:09:25.059Z,28.16
2022-08-21T12:12:01.074Z,27.90
2022-08-21T12:14:44.779Z,27.49
2022-08-21T12:17:22.146Z,27.63
2022-08-21T12:20:02.857Z,27.69
2022-08-21T12:22:39.690Z,27.50
2022-08-21T12:25:11.607Z,27.45
2022-08-21T12:27:45.565Z,27.68
2022-08-21T12:30:28.389Z,27.55
2022-08-21T12:32:57.513Z,27.66
2022-08-21T12:35:45.353Z,27.61
2022-08-21T12:38:16.867Z,27.41
2022-08-21T12:40:47.610Z,27.42
2022-08-21T12:43:17.193Z,27.52
2022-08-21T12:45:46.046Z,27.48
2022-08-21T12:48:25.201Z,27.12
2022-08-21T12:51:01.579Z,27.51
2022-08-21T12:53:33.307Z,27.35
2022-08-21T12:56:05.082Z,27.20
2022-08-21T12:58:32.476Z,26.91
2022-08-21T13:01:07.224Z,27.24
2022-08-21T13:03:36.573Z,27.11
2022-08-21T13:06:04.952Z,27.28
2022-08-21T13:08:34.531Z,26.99
2022-08-21T13:11:13.577Z,26.74
2022-08-21T13:13:46.960Z,27.00
2022-08-21T13:16:23.575Z,26.98
2022-08-21T13:18:55.977Z,27.09
2022-08-21T13:21:28.712Z,27.19
2022-08-21T13:23:55.955Z,27.08
2022-08-21T13:26:23.421Z,26.92
2022-08-21T13:28:51.356Z,26.80
2022-08-21T13:31:19.759Z,26.59
2022-08-21T13:33:47.211Z,26.36
2022-08-21T13:36:28.072Z,26.59
2022-08-21T13:38:55.839Z,26.72
2022-08-21T13:41:28.427Z,26.78
2022-08-21T13:44:00.824Z,26.30
2022-08-21T13:46:29.656Z,26.39
2022-08-21T13:48:57.253Z,26.44
2022-08-21T13:51:25.108Z,26.47
2022-08-21T13:53:54.018Z,26.66
2022-08-21T13:56:27.582Z,26.14
2022-08-21T13:58:55.460Z,26.13
2022-08-21T14:01:33.686Z,26.21
2022-08-21T14:04:05.784Z,25.90
2022-08-21T14:06:37.434Z,25.93
2022-08-21T14:09:09.411Z,26.12
2022-08-21T14:11:36.731Z,26.15
2022-08-21T14:14:05.511Z,26.28
2022-08-21T14:16:46.888Z,25.90
2022-08-21T14:19:24.421Z,25.90
2022-08-21T14:21:51.947Z,25.78
2022-08-21T14:24:25.244Z,25.86
2022-08-21T14:27:04.288Z,25.85
2022-08-21T14:29:41.962Z,25.87
2022-08-21T14:32:25.230Z,26.01
2022-08-21T14:34:54.944Z,25.86
2022-08-21T14:37:23.278Z,26.01
2022-08-21T14:39:50.748Z,26.13
2022-08-21T14:42:17.951Z,26.06
2022-08-21T14:44:45.386Z,26.02
2022-08-21T14:47:12.645Z,26.05
2022-08-21T14:49:40.783Z,25.86
2022-08-21T14:52:08.354Z,25.79
2022-08-21T14:54:35.571Z,25.93
2022-08-21T14:57:04.698Z,25.73
2022-08-21T14:59:34.031Z,25.76
2022-08-21T15:02:01.626Z,25.72
2022-08-21T15:04:28.805Z,25.74
2022-08-21T15:06:56.357Z,25.73
2022-08-21T15:09:25.698Z,25.73
2022-08-21T15:11:56.606Z,25.70
2022-08-21T15:14:25.707Z,25.92
2022-08-21T15:16:53.100Z,25.75
2022-08-21T15:19:20.478Z,25.74
2022-08-21T15:21:49.135Z,25.59
2022-08-21T15:24:16.849Z,25.83
2022-08-21T15:26:44.380Z,25.63
2022-08-21T15:29:12.795Z,25.56
2022-08-21T15:31:50.773Z,25.70
2022-08-21T15:34:18.605Z,25.90
2022-08-21T15:36:46.204Z,25.80
2022-08-21T15:39:13.611Z,25.57
2022-08-21T15:41:41.911Z,25.78
2022-08-21T15:44:12.711Z,25.48
2022-08-21T15:46:40.484Z,25.74
2022-08-21T15:49:08.766Z,25.57
2022-08-21T15:51:43.789Z,25.25
2022-08-21T15:54:11.771Z,25.55
2022-08-21T15:56:39.892Z,25.59
2022-08-21T15:59:13.671Z,25.59
2022-08-21T16:01:44.666Z,25.56
2022-08-21T16:04:26.172Z,25.49
2022-08-21T16:06:57.722Z,25.61
2022-08-21T16:09:29.497Z,25.60
2022-08-21T16:11:57.154Z,25.51
2022-08-21T16:14:24.954Z,25.39
2022-08-21T16:16:53.028Z,25.38
2022-08-21T16:19:21.747Z,25.35
2022-08-21T16:21:49.923Z,25.19
2022-08-21T16:24:17.417Z,25.35
2022-08-21T16:26:44.600Z,25.39
2022-08-21T16:29:11.863Z,25.20
2022-08-21T16:31:42.977Z,25.37
2022-08-21T16:34:10.237Z,25.15
2022-08-21T16:36:43.101Z,25.15
2022-08-21T16:39:10.528Z,25.36
2022-08-21T16:41:38.717Z,25.06
2022-08-21T16:44:07.273Z,25.13
2022-08-21T16:46:38.808Z,25.34
2022-08-21T16:49:06.293Z,25.16
2022-08-21T16:51:35.254Z,25.23
2022-08-21T16:54:03.972Z,25.23
2022-08-21T16:56:31.510Z,25.38
2022-08-21T16:58:59.334Z,25.24
2022-08-21T17:01:28.614Z,25.04
2022-08-21T17:03:56.453Z,25.23
2022-08-21T17:06:28.940Z,25.18
2022-08-21T17:08:57.271Z,25.21
2022-08-21T17:11:36.719Z,25.05
2022-08-21T17:14:09.909Z,25.04
2022-08-21T17:16:37.698Z,25.25
2022-08-21T17:19:06.379Z,24.99
2022-08-21T17:21:33.874Z,25.09
2022-08-21T17:24:01.102Z,24.97
2022-08-21T17:26:29.182Z,24.85
2022-08-21T17:28:59.302Z,24.68
2022-08-21T17:31:26.901Z,24.88
2022-08-21T17:33:58.710Z,25.08
2022-08-21T17:36:27.169Z,25.05
2022-08-21T17:38:54.703Z,24.89
2022-08-21T17:41:22.437Z,24.81
2022-08-21T17:43:51.696Z,24.81
2022-08-21T17:46:20.566Z,24.83
2022-08-21T17:48:47.934Z,24.82
2022-08-21T17:51:15.730Z,24.79
2022-08-21T17:53:45.038Z,24.73
2022-08-21T17:56:15.721Z,24.78
2022-08-21T17:58:44.780Z,24.88
2022-08-21T18:01:12.156Z,24.82
2022-08-21T18:03:39.777Z,24.85
2022-08-21T18:06:07.212Z,24.75
2022-08-21T18:08:35.722Z,24.63
2022-08-21T18:11:06.245Z,24.80
2022-08-21T18:13:38.386Z,24.73
2022-08-21T18:16:06.215Z,24.61
2022-08-21T18:18:36.472Z,24.62
2022-08-21T18:21:03.744Z,24.58
2022-08-21T18:23:43.816Z,24.59
2022-08-21T18:26:16.027Z,24.51
2022-08-21T18:28:44.376Z,24.48
2022-08-21T18:31:11.787Z,24.53
2022-08-21T18:33:39.352Z,24.76
2022-08-21T18:36:11.289Z,24.62
2022-08-21T18:38:42.673Z,24.67
2022-08-21T18:41:10.481Z,24.70
2022-08-21T18:43:38.909Z,24.64
2022-08-21T18:46:06.525Z,24.46
2022-08-21T18:48:35.505Z,24.50
2022-08-21T18:51:04.427Z,24.25
2022-08-21T18:53:36.417Z,24.38
2022-08-21T18:56:05.561Z,24.23
2022-08-21T18:58:33.940Z,24.30
2022-08-21T19:01:02.530Z,24.49
2022-08-21T19:03:33.317Z,24.39
2022-08-21T19:06:01.704Z,24.31
2022-08-21T19:08:35.996Z,24.33
2022-08-21T19:11:10.778Z,24.45
2022-08-21T19:13:39.210Z,24.32
2022-08-21T19:18:55.000Z,24.06
2022-08-21T19:21:26.947Z,24.03
2022-08-21T19:23:56.180Z,24.10
2022-08-21T19:26:26.090Z,24.04
2022-08-21T19:28:59.577Z,24.25
2022-08-21T19:31:32.470Z,24.08
2022-08-21T19:34:04.165Z,24.10
2022-08-21T19:36:32.857Z,24.06
2022-08-21T19:39:02.063Z,23.97
2022-08-21T19:41:42.686Z,23.91
2022-08-21T19:44:10.519Z,24.04
2022-08-21T19:46:44.037Z,24.20
2022-08-21T19:49:13.524Z,24.00
2022-08-21T19:51:42.962Z,23.99
2022-08-21T19:54:14.409Z,24.03
2022-08-21T19:56:48.541Z,23.71
2022-08-21T19:59:17.826Z,23.90
2022-08-21T20:01:47.210Z,23.84
2022-08-21T20:04:19.433Z,23.85
2022-08-21T20:06:54.492Z,23.88
2022-08-21T20:09:22.508Z,23.84
2022-08-21T20:11:51.738Z,23.70
2022-08-21T20:14:21.660Z,23.68
2022-08-21T20:19:41.238Z,23.58
2022-08-21T20:22:10.168Z,23.38
2022-08-21T20:24:38.323Z,23.63
2022-08-21T20:27:06.295Z,23.64
2022-08-21T20:29:38.953Z,23.53
2022-08-21T20:32:11.878Z,23.50
2022-08-21T20:34:40.822Z,23.38
2022-08-21T20:37:09.130Z,23.31
2022-08-21T20:39:37.312Z,23.32
2022-08-21T20:42:07.029Z,23.26
2022-08-21T20:44:34.512Z,23.31
2022-08-21T20:47:09.032Z,23.49
2022-08-21T20:49:42.148Z,23.50
2022-08-21T20:52:09.331Z,23.52
2022-08-21T20:54:44.262Z,23.44
2022-08-21T20:57:14.744Z,23.62
2022-08-21T20:59:47.786Z,23.60
2022-08-21T21:02:19.999Z,23.28
2022-08-21T21:05:08.020Z,23.52
2022-08-21T21:07:55.717Z,23.41
2022-08-21T21:10:33.350Z,23.42
2022-08-21T21:13:03.370Z,23.27
2022-08-21T21:15:31.920Z,23.42
2022-08-21T21:18:04.112Z,23.41
2022-08-21T21:20:37.532Z,23.20
2022-08-21T21:23:12.164Z,23.25
2022-08-21T21:25:42.797Z,23.11
2022-08-21T21:28:14.682Z,23.17
2022-08-21T21:30:46.452Z,23.28
2022-08-21T21:33:18.710Z,23.32
2022-08-21T21:35:54.991Z,23.02
2022-08-21T21:38:32.187Z,23.14
2022-08-21T21:41:29.269Z,23.23
2022-08-21T21:44:09.021Z,22.98
2022-08-21T21:46:55.810Z,22.91
2022-08-21T21:49:26.092Z,22.90
2022-08-21T21:52:01.239Z,22.73
2022-08-21T21:54:42.640Z,22.97
2022-08-21T21:57:19.307Z,22.83
2022-08-21T21:59:51.514Z,23.02
2022-08-21T22:02:34.216Z,22.60
2022-08-21T22:05:06.904Z,22.47
2022-08-21T22:07:46.374Z,22.34
2022-08-21T22:10:30.580Z,22.55
2022-08-21T22:13:26.516Z,22.86
2022-08-21T22:15:54.786Z,22.34
2022-08-21T22:18:23.283Z,22.38
2022-08-21T22:20:52.090Z,22.10
2022-08-21T22:23:21.249Z,22.58
2022-08-21T22:25:50.594Z,22.48
2022-08-21T22:28:22.326Z,22.33
2022-08-21T22:30:54.753Z,22.51
2022-08-21T22:33:26.343Z,22.43
2022-08-21T22:35:58.835Z,22.20
2022-08-21T22:38:26.030Z,22.01
2022-08-21T22:41:08.869Z,21.90
2022-08-21T22:43:36.753Z,22.40
2022-08-21T22:46:05.884Z,22.44
2022-08-21T22:48:38.148Z,22.55
2022-08-21T22:51:13.050Z,22.28
2022-08-21T22:53:41.548Z,22.52
2022-08-21T22:56:09.404Z,22.52
2022-08-21T22:58:37.516Z,22.60
2022-08-21T23:01:23.786Z,22.60
2022-08-21T23:03:52.150Z,22.71
2022-08-21T23:06:27.266Z,22.71
2022-08-21T23:08:54.675Z,22.68
2022-08-21T23:14:14.113Z,22.65
2022-08-21T23:16:47.572Z,22.49
2022-08-21T23:19:38.028Z,22.66
2022-08-21T23:22:14.889Z,22.69
2022-08-21T23:24:46.471Z,22.63
2022-08-21T23:27:23.282Z,22.67
2022-08-21T23:29:57.703Z,22.69
2022-08-21T23:32:35.674Z,22.53
2022-08-21T23:35:21.851Z,22.81
2022-08-21T23:37:53.816Z,22.48
2022-08-21T23:40:35.958Z,22.43
2022-08-21T23:43:03.751Z,22.69
2022-08-21T23:45:34.202Z,22.69
2022-08-21T23:48:21.603Z,22.57
2022-08-21T23:51:00.349Z,22.42
2022-08-21T23:53:28.362Z,22.52
2022-08-21T23:56:01.556Z,22.64
2022-08-21T23:58:32.474Z,22.66
